sensor_id;sensor_type;location;lat;lon;timestamp;P1;durP1;ratioP1;P2;durP2;ratioP2
48911;SDS011;34722;52.108;5.044;2023-02-08T00:00:50;57.08;;;26.67;;
48911;SDS011;34722;52.108;5.044;2023-02-08T00:03:19;60.80;;;26.98;;
48911;SDS011;34722;52.108;5.044;2023-02-08T00:05:45;60.15;;;27.42;;
48911;SDS011;34722;52.108;5.044;2023-02-08T00:08:11;64.95;;;27.45;;
48911;SDS011;34722;52.108;5.044;2023-02-08T00:10:37;60.05;;;26.92;;
48911;SDS011;34722;52.108;5.044;2023-02-08T00:13:03;66.18;;;27.58;;
48911;SDS011;34722;52.108;5.044;2023-02-08T00:15:29;61.13;;;27.38;;
48911;SDS011;34722;52.108;5.044;2023-02-08T00:17:54;60.78;;;27.48;;
48911;SDS011;34722;52.108;5.044;2023-02-08T00:20:20;66.78;;;27.65;;
48911;SDS011;34722;52.108;5.044;2023-02-08T00:22:46;65.20;;;26.20;;
48911;SDS011;34722;52.108;5.044;2023-02-08T00:25:12;62.83;;;28.02;;
48911;SDS011;34722;52.108;5.044;2023-02-08T00:27:43;67.07;;;30.05;;
48911;SDS011;34722;52.108;5.044;2023-02-08T00:30:09;63.08;;;28.70;;
48911;SDS011;34722;52.108;5.044;2023-02-08T00:32:35;69.30;;;28.13;;
48911;SDS011;34722;52.108;5.044;2023-02-08T00:35:00;64.88;;;29.45;;
48911;SDS011;34722;52.108;5.044;2023-02-08T00:37:26;62.53;;;29.40;;
48911;SDS011;34722;52.108;5.044;2023-02-08T00:39:52;63.38;;;28.77;;
48911;SDS011;34722;52.108;5.044;2023-02-08T00:42:18;59.58;;;27.25;;
48911;SDS011;34722;52.108;5.044;2023-02-08T00:44:43;53.85;;;26.90;;
48911;SDS011;34722;52.108;5.044;2023-02-08T00:47:19;58.20;;;28.38;;
48911;SDS011;34722;52.108;5.044;2023-02-08T00:49:46;59.50;;;26.35;;
48911;SDS011;34722;52.108;5.044;2023-02-08T00:52:12;56.60;;;25.55;;
48911;SDS011;34722;52.108;5.044;2023-02-08T00:54:38;66.13;;;28.55;;
48911;SDS011;34722;52.108;5.044;2023-02-08T00:57:04;60.05;;;27.52;;
48911;SDS011;34722;52.108;5.044;2023-02-08T00:59:29;56.55;;;26.52;;
48911;SDS011;34722;52.108;5.044;2023-02-08T01:01:55;57.88;;;27.73;;
48911;SDS011;34722;52.108;5.044;2023-02-08T01:04:21;64.72;;;30.02;;
48911;SDS011;34722;52.108;5.044;2023-02-08T01:06:46;61.47;;;28.88;;
48911;SDS011;34722;52.108;5.044;2023-02-08T01:09:12;62.42;;;29.63;;
48911;SDS011;34722;52.108;5.044;2023-02-08T01:11:38;69.35;;;31.15;;
48911;SDS011;34722;52.108;5.044;2023-02-08T01:14:04;58.92;;;28.50;;
48911;SDS011;34722;52.108;5.044;2023-02-08T01:16:30;68.95;;;29.88;;
48911;SDS011;34722;52.108;5.044;2023-02-08T01:18:57;60.17;;;29.65;;
48911;SDS011;34722;52.108;5.044;2023-02-08T01:21:26;66.38;;;29.50;;
48911;SDS011;34722;52.108;5.044;2023-02-08T01:23:54;64.22;;;28.38;;
48911;SDS011;34722;52.108;5.044;2023-02-08T01:26:20;60.42;;;29.10;;
48911;SDS011;34722;52.108;5.044;2023-02-08T01:28:46;63.63;;;29.55;;
48911;SDS011;34722;52.108;5.044;2023-02-08T01:31:24;65.63;;;30.00;;
48911;SDS011;34722;52.108;5.044;2023-02-08T01:33:53;63.13;;;30.73;;
48911;SDS011;34722;52.108;5.044;2023-02-08T01:36:19;65.40;;;28.52;;
48911;SDS011;34722;52.108;5.044;2023-02-08T01:38:45;66.47;;;29.52;;
48911;SDS011;34722;52.108;5.044;2023-02-08T01:41:16;62.10;;;28.77;;
48911;SDS011;34722;52.108;5.044;2023-02-08T01:46:33;62.78;;;27.98;;
48911;SDS011;34722;52.108;5.044;2023-02-08T01:49:45;65.68;;;30.20;;
48911;SDS011;34722;52.108;5.044;2023-02-08T01:52:13;59.97;;;28.42;;
48911;SDS011;34722;52.108;5.044;2023-02-08T01:54:45;64.50;;;30.30;;
48911;SDS011;34722;52.108;5.044;2023-02-08T01:57:15;62.35;;;31.17;;
48911;SDS011;34722;52.108;5.044;2023-02-08T01:59:45;64.25;;;29.88;;
48911;SDS011;34722;52.108;5.044;2023-02-08T02:02:15;62.70;;;29.67;;
48911;SDS011;34722;52.108;5.044;2023-02-08T02:04:43;58.58;;;29.00;;
48911;SDS011;34722;52.108;5.044;2023-02-08T02:07:09;63.08;;;29.63;;
48911;SDS011;34722;52.108;5.044;2023-02-08T02:09:46;63.70;;;29.52;;
48911;SDS011;34722;52.108;5.044;2023-02-08T02:12:18;60.15;;;28.30;;
48911;SDS011;34722;52.108;5.044;2023-02-08T02:14:45;65.88;;;28.38;;
48911;SDS011;34722;52.108;5.044;2023-02-08T02:17:11;59.97;;;26.77;;
48911;SDS011;34722;52.108;5.044;2023-02-08T02:19:43;57.45;;;26.77;;
48911;SDS011;34722;52.108;5.044;2023-02-08T02:47:07;53.88;;;25.83;;
48911;SDS011;34722;52.108;5.044;2023-02-08T02:49:48;50.10;;;26.05;;
48911;SDS011;34722;52.108;5.044;2023-02-08T02:52:26;59.95;;;25.20;;
48911;SDS011;34722;52.108;5.044;2023-02-08T02:55:10;60.17;;;26.15;;
48911;SDS011;34722;52.108;5.044;2023-02-08T02:57:41;62.42;;;26.75;;
48911;SDS011;34722;52.108;5.044;2023-02-08T03:00:09;66.25;;;27.75;;
48911;SDS011;34722;52.108;5.044;2023-02-08T03:02:38;61.67;;;27.80;;
48911;SDS011;34722;52.108;5.044;2023-02-08T03:05:05;58.63;;;26.45;;
48911;SDS011;34722;52.108;5.044;2023-02-08T03:07:51;64.30;;;26.80;;
48911;SDS011;34722;52.108;5.044;2023-02-08T03:13:20;60.72;;;27.73;;
48911;SDS011;34722;52.108;5.044;2023-02-08T03:18:57;55.83;;;26.80;;
48911;SDS011;34722;52.108;5.044;2023-02-08T03:21:53;55.05;;;27.90;;
48911;SDS011;34722;52.108;5.044;2023-02-08T03:24:29;58.72;;;25.85;;
48911;SDS011;34722;52.108;5.044;2023-02-08T03:27:01;57.22;;;27.50;;
48911;SDS011;34722;52.108;5.044;2023-02-08T03:40:37;63.03;;;27.40;;
48911;SDS011;34722;52.108;5.044;2023-02-08T03:43:10;56.78;;;26.08;;
48911;SDS011;34722;52.108;5.044;2023-02-08T03:45:45;60.45;;;27.42;;
48911;SDS011;34722;52.108;5.044;2023-02-08T03:48:17;52.92;;;25.73;;
48911;SDS011;34722;52.108;5.044;2023-02-08T03:50:48;59.10;;;25.92;;
48911;SDS011;34722;52.108;5.044;2023-02-08T03:56:15;67.28;;;27.73;;
48911;SDS011;34722;52.108;5.044;2023-02-08T03:58:54;52.40;;;23.10;;
48911;SDS011;34722;52.108;5.044;2023-02-08T04:01:26;56.08;;;25.55;;
48911;SDS011;34722;52.108;5.044;2023-02-08T04:03:56;58.45;;;25.63;;
48911;SDS011;34722;52.108;5.044;2023-02-08T04:09:36;62.25;;;25.98;;
48911;SDS011;34722;52.108;5.044;2023-02-08T04:12:02;58.05;;;27.25;;
48911;SDS011;34722;52.108;5.044;2023-02-08T04:14:27;53.25;;;25.40;;
48911;SDS011;34722;52.108;5.044;2023-02-08T04:16:53;60.10;;;26.90;;
48911;SDS011;34722;52.108;5.044;2023-02-08T04:19:19;55.88;;;24.77;;
48911;SDS011;34722;52.108;5.044;2023-02-08T04:21:44;57.75;;;26.13;;
48911;SDS011;34722;52.108;5.044;2023-02-08T04:24:10;51.22;;;24.00;;
48911;SDS011;34722;52.108;5.044;2023-02-08T04:26:35;54.80;;;25.23;;
48911;SDS011;34722;52.108;5.044;2023-02-08T04:29:01;50.60;;;22.15;;
48911;SDS011;34722;52.108;5.044;2023-02-08T04:31:27;53.65;;;23.85;;
48911;SDS011;34722;52.108;5.044;2023-02-08T04:33:52;49.53;;;24.00;;
48911;SDS011;34722;52.108;5.044;2023-02-08T04:36:18;55.45;;;23.90;;
48911;SDS011;34722;52.108;5.044;2023-02-08T04:38:44;50.83;;;23.27;;
48911;SDS011;34722;52.108;5.044;2023-02-08T04:41:16;45.53;;;21.33;;
48911;SDS011;34722;52.108;5.044;2023-02-08T04:43:41;41.13;;;20.75;;
48911;SDS011;34722;52.108;5.044;2023-02-08T04:46:07;48.22;;;22.42;;
48911;SDS011;34722;52.108;5.044;2023-02-08T04:48:32;41.00;;;20.88;;
48911;SDS011;34722;52.108;5.044;2023-02-08T04:50:58;46.47;;;20.00;;
48911;SDS011;34722;52.108;5.044;2023-02-08T04:53:24;45.90;;;19.67;;
48911;SDS011;34722;52.108;5.044;2023-02-08T04:55:50;40.78;;;18.90;;
48911;SDS011;34722;52.108;5.044;2023-02-08T04:58:16;44.47;;;19.98;;
48911;SDS011;34722;52.108;5.044;2023-02-08T05:00:42;35.75;;;18.40;;
48911;SDS011;34722;52.108;5.044;2023-02-08T05:03:08;36.40;;;16.88;;
48911;SDS011;34722;52.108;5.044;2023-02-08T05:05:34;32.10;;;16.77;;
48911;SDS011;34722;52.108;5.044;2023-02-08T05:08:00;36.20;;;17.95;;
48911;SDS011;34722;52.108;5.044;2023-02-08T05:10:26;33.58;;;16.85;;
48911;SDS011;34722;52.108;5.044;2023-02-08T05:12:51;37.47;;;17.80;;
48911;SDS011;34722;52.108;5.044;2023-02-08T05:15:17;36.85;;;16.98;;
48911;SDS011;34722;52.108;5.044;2023-02-08T05:17:43;36.38;;;17.55;;
48911;SDS011;34722;52.108;5.044;2023-02-08T05:20:10;31.55;;;16.90;;
48911;SDS011;34722;52.108;5.044;2023-02-08T05:22:36;35.58;;;16.52;;
48911;SDS011;34722;52.108;5.044;2023-02-08T05:25:02;39.85;;;17.98;;
48911;SDS011;34722;52.108;5.044;2023-02-08T05:27:28;42.80;;;17.70;;
48911;SDS011;34722;52.108;5.044;2023-02-08T05:29:54;35.17;;;16.73;;
48911;SDS011;34722;52.108;5.044;2023-02-08T05:32:19;36.15;;;16.67;;
48911;SDS011;34722;52.108;5.044;2023-02-08T05:34:45;37.22;;;18.50;;
48911;SDS011;34722;52.108;5.044;2023-02-08T05:37:11;37.08;;;17.17;;
48911;SDS011;34722;52.108;5.044;2023-02-08T05:39:38;41.40;;;18.10;;
48911;SDS011;34722;52.108;5.044;2023-02-08T05:42:04;34.65;;;17.15;;
48911;SDS011;34722;52.108;5.044;2023-02-08T05:44:30;32.30;;;16.88;;
48911;SDS011;34722;52.108;5.044;2023-02-08T05:46:56;34.00;;;16.60;;
48911;SDS011;34722;52.108;5.044;2023-02-08T05:49:21;34.28;;;15.80;;
48911;SDS011;34722;52.108;5.044;2023-02-08T05:51:47;32.72;;;16.27;;
48911;SDS011;34722;52.108;5.044;2023-02-08T05:54:14;31.83;;;17.02;;
48911;SDS011;34722;52.108;5.044;2023-02-08T05:56:40;36.22;;;16.25;;
48911;SDS011;34722;52.108;5.044;2023-02-08T05:59:06;34.17;;;16.75;;
48911;SDS011;34722;52.108;5.044;2023-02-08T06:01:32;34.88;;;16.35;;
48911;SDS011;34722;52.108;5.044;2023-02-08T06:03:58;37.97;;;17.98;;
48911;SDS011;34722;52.108;5.044;2023-02-08T06:06:24;32.13;;;18.15;;
48911;SDS011;34722;52.108;5.044;2023-02-08T06:08:50;36.08;;;17.55;;
48911;SDS011;34722;52.108;5.044;2023-02-08T06:11:16;30.95;;;16.42;;
48911;SDS011;34722;52.108;5.044;2023-02-08T06:13:43;34.75;;;16.52;;
48911;SDS011;34722;52.108;5.044;2023-02-08T06:16:10;37.13;;;15.98;;
48911;SDS011;34722;52.108;5.044;2023-02-08T06:18:36;41.58;;;17.67;;
48911;SDS011;34722;52.108;5.044;2023-02-08T06:21:02;33.03;;;17.02;;
48911;SDS011;34722;52.108;5.044;2023-02-08T06:23:28;31.55;;;16.55;;
48911;SDS011;34722;52.108;5.044;2023-02-08T06:25:53;39.28;;;16.63;;
48911;SDS011;34722;52.108;5.044;2023-02-08T06:28:19;38.92;;;18.50;;
48911;SDS011;34722;52.108;5.044;2023-02-08T06:30:44;35.60;;;15.98;;
48911;SDS011;34722;52.108;5.044;2023-02-08T06:33:15;38.92;;;18.05;;
48911;SDS011;34722;52.108;5.044;2023-02-08T06:35:45;39.88;;;18.70;;
48911;SDS011;34722;52.108;5.044;2023-02-08T06:38:11;38.58;;;16.85;;
48911;SDS011;34722;52.108;5.044;2023-02-08T06:40:38;37.80;;;17.02;;
48911;SDS011;34722;52.108;5.044;2023-02-08T06:43:04;37.25;;;16.58;;
48911;SDS011;34722;52.108;5.044;2023-02-08T06:45:29;35.35;;;16.92;;
48911;SDS011;34722;52.108;5.044;2023-02-08T06:47:55;33.60;;;17.13;;
48911;SDS011;34722;52.108;5.044;2023-02-08T06:50:20;34.70;;;16.73;;
48911;SDS011;34722;52.108;5.044;2023-02-08T06:52:46;39.15;;;18.27;;
48911;SDS011;34722;52.108;5.044;2023-02-08T06:55:12;39.42;;;18.10;;
48911;SDS011;34722;52.108;5.044;2023-02-08T06:57:38;37.10;;;16.95;;
48911;SDS011;34722;52.108;5.044;2023-02-08T07:00:04;36.05;;;17.52;;
48911;SDS011;34722;52.108;5.044;2023-02-08T07:02:30;38.35;;;17.55;;
48911;SDS011;34722;52.108;5.044;2023-02-08T07:04:56;40.47;;;16.90;;
48911;SDS011;34722;52.108;5.044;2023-02-08T07:07:22;33.40;;;16.23;;
48911;SDS011;34722;52.108;5.044;2023-02-08T07:09:47;36.92;;;16.65;;
48911;SDS011;34722;52.108;5.044;2023-02-08T07:12:13;39.10;;;16.65;;
48911;SDS011;34722;52.108;5.044;2023-02-08T07:14:40;39.42;;;17.67;;
48911;SDS011;34722;52.108;5.044;2023-02-08T10:35:56;22.15;;;15.43;;
48911;SDS011;34722;52.108;5.044;2023-02-08T10:38:26;20.95;;;16.60;;
48911;SDS011;34722;52.108;5.044;2023-02-08T10:40:59;22.60;;;16.05;;
48911;SDS011;34722;52.108;5.044;2023-02-08T10:46:11;24.40;;;15.88;;
48911;SDS011;34722;52.108;5.044;2023-02-08T10:51:27;23.92;;;14.30;;
48911;SDS011;34722;52.108;5.044;2023-02-08T10:53:54;18.58;;;14.82;;
48911;SDS011;34722;52.108;5.044;2023-02-08T10:58:46;20.45;;;14.93;;
48911;SDS011;34722;52.108;5.044;2023-02-08T11:01:12;21.50;;;15.70;;
48911;SDS011;34722;52.108;5.044;2023-02-08T11:03:38;21.83;;;15.90;;
48911;SDS011;34722;52.108;5.044;2023-02-08T11:06:28;20.83;;;15.73;;
48911;SDS011;34722;52.108;5.044;2023-02-08T11:08:54;20.38;;;15.93;;
48911;SDS011;34722;52.108;5.044;2023-02-08T11:13:47;19.75;;;15.30;;
48911;SDS011;34722;52.108;5.044;2023-02-08T11:16:20;22.02;;;14.35;;
48911;SDS011;34722;52.108;5.044;2023-02-08T11:18:50;18.67;;;14.25;;
48911;SDS011;34722;52.108;5.044;2023-02-08T11:21:22;21.75;;;14.68;;
48911;SDS011;34722;52.108;5.044;2023-02-08T11:24:18;18.83;;;13.75;;
48911;SDS011;34722;52.108;5.044;2023-02-08T11:26:54;17.80;;;14.43;;
48911;SDS011;34722;52.108;5.044;2023-02-08T11:29:21;19.17;;;14.38;;
48911;SDS011;34722;52.108;5.044;2023-02-08T11:31:56;23.88;;;14.23;;
48911;SDS011;34722;52.108;5.044;2023-02-08T11:34:31;20.10;;;14.90;;
48911;SDS011;34722;52.108;5.044;2023-02-08T11:37:04;19.80;;;14.40;;
48911;SDS011;34722;52.108;5.044;2023-02-08T11:39:41;15.80;;;12.55;;
48911;SDS011;34722;52.108;5.044;2023-02-08T11:42:18;20.67;;;14.05;;
48911;SDS011;34722;52.108;5.044;2023-02-08T11:44:44;18.08;;;14.23;;
48911;SDS011;34722;52.108;5.044;2023-02-08T11:47:13;18.77;;;14.73;;
48911;SDS011;34722;52.108;5.044;2023-02-08T11:49:41;24.17;;;14.60;;
48911;SDS011;34722;52.108;5.044;2023-02-08T11:52:22;23.50;;;15.23;;
48911;SDS011;34722;52.108;5.044;2023-02-08T11:54:54;19.80;;;15.10;;
48911;SDS011;34722;52.108;5.044;2023-02-08T12:13:59;26.23;;;14.63;;
48911;SDS011;34722;52.108;5.044;2023-02-08T12:21:49;21.17;;;14.50;;
48911;SDS011;34722;52.108;5.044;2023-02-08T12:32:50;22.20;;;13.82;;
48911;SDS011;34722;52.108;5.044;2023-02-08T12:35:46;24.48;;;14.50;;
48911;SDS011;34722;52.108;5.044;2023-02-08T12:52:58;26.20;;;14.13;;
48911;SDS011;34722;52.108;5.044;2023-02-08T12:55:28;25.67;;;14.15;;
48911;SDS011;34722;52.108;5.044;2023-02-08T12:58:03;24.60;;;14.48;;
48911;SDS011;34722;52.108;5.044;2023-02-08T13:00:50;24.88;;;14.15;;
48911;SDS011;34722;52.108;5.044;2023-02-08T13:06:01;19.77;;;13.20;;
48911;SDS011;34722;52.108;5.044;2023-02-08T13:08:35;22.83;;;14.05;;
48911;SDS011;34722;52.108;5.044;2023-02-08T13:11:12;24.08;;;13.98;;
48911;SDS011;34722;52.108;5.044;2023-02-08T13:14:05;25.63;;;15.50;;
48911;SDS011;34722;52.108;5.044;2023-02-08T13:16:39;25.83;;;14.85;;
48911;SDS011;34722;52.108;5.044;2023-02-08T13:21:38;25.27;;;13.77;;
48911;SDS011;34722;52.108;5.044;2023-02-08T13:24:14;22.05;;;13.52;;
48911;SDS011;34722;52.108;5.044;2023-02-08T13:27:02;20.67;;;13.63;;
48911;SDS011;34722;52.108;5.044;2023-02-08T13:29:30;26.27;;;13.40;;
48911;SDS011;34722;52.108;5.044;2023-02-08T13:34:52;28.73;;;13.23;;
48911;SDS011;34722;52.108;5.044;2023-02-08T13:37:21;27.33;;;13.05;;
48911;SDS011;34722;52.108;5.044;2023-02-08T13:39:56;21.45;;;12.95;;
48911;SDS011;34722;52.108;5.044;2023-02-08T13:42:32;21.38;;;13.35;;
48911;SDS011;34722;52.108;5.044;2023-02-08T13:45:08;24.00;;;13.05;;
48911;SDS011;34722;52.108;5.044;2023-02-08T13:47:46;25.80;;;13.00;;
48911;SDS011;34722;52.108;5.044;2023-02-08T13:53:06;19.80;;;12.45;;
48911;SDS011;34722;52.108;5.044;2023-02-08T13:55:39;25.02;;;13.23;;
48911;SDS011;34722;52.108;5.044;2023-02-08T14:00:59;21.00;;;12.55;;
48911;SDS011;34722;52.108;5.044;2023-02-08T14:03:28;21.15;;;12.05;;
48911;SDS011;34722;52.108;5.044;2023-02-08T14:11:13;20.02;;;12.18;;
48911;SDS011;34722;52.108;5.044;2023-02-08T14:14:19;20.88;;;12.15;;
48911;SDS011;34722;52.108;5.044;2023-02-08T14:19:29;19.85;;;11.57;;
48911;SDS011;34722;52.108;5.044;2023-02-08T14:22:01;18.52;;;10.85;;
48911;SDS011;34722;52.108;5.044;2023-02-08T14:27:16;16.00;;;10.73;;
48911;SDS011;34722;52.108;5.044;2023-02-08T14:32:39;16.88;;;11.05;;
48911;SDS011;34722;52.108;5.044;2023-02-08T14:37:40;21.70;;;11.05;;
48911;SDS011;34722;52.108;5.044;2023-02-08T14:45:31;18.90;;;11.43;;
48911;SDS011;34722;52.108;5.044;2023-02-08T14:48:18;19.85;;;11.43;;
48911;SDS011;34722;52.108;5.044;2023-02-08T14:50:51;22.27;;;12.60;;
48911;SDS011;34722;52.108;5.044;2023-02-08T14:53:25;17.25;;;10.43;;
48911;SDS011;34722;52.108;5.044;2023-02-08T14:55:55;17.23;;;11.93;;
48911;SDS011;34722;52.108;5.044;2023-02-08T14:58:33;20.75;;;11.10;;
48911;SDS011;34722;52.108;5.044;2023-02-08T15:01:05;18.90;;;10.50;;
48911;SDS011;34722;52.108;5.044;2023-02-08T15:03:37;20.02;;;11.10;;
48911;SDS011;34722;52.108;5.044;2023-02-08T15:09:42;19.35;;;10.90;;
48911;SDS011;34722;52.108;5.044;2023-02-08T15:12:28;16.20;;;11.10;;
48911;SDS011;34722;52.108;5.044;2023-02-08T15:15:03;21.15;;;10.45;;
48911;SDS011;34722;52.108;5.044;2023-02-08T15:17:44;18.15;;;9.43;;
48911;SDS011;34722;52.108;5.044;2023-02-08T15:20:36;17.00;;;10.43;;
48911;SDS011;34722;52.108;5.044;2023-02-08T15:25:35;18.58;;;11.50;;
48911;SDS011;34722;52.108;5.044;2023-02-08T15:31:07;20.95;;;9.65;;
48911;SDS011;34722;52.108;5.044;2023-02-08T15:33:43;16.75;;;9.57;;
48911;SDS011;34722;52.108;5.044;2023-02-08T15:36:34;14.40;;;9.93;;
48911;SDS011;34722;52.108;5.044;2023-02-08T15:39:02;16.95;;;10.27;;
48911;SDS011;34722;52.108;5.044;2023-02-08T15:41:42;17.27;;;10.27;;
48911;SDS011;34722;52.108;5.044;2023-02-08T15:44:19;17.05;;;10.15;;
48911;SDS011;34722;52.108;5.044;2023-02-08T15:46:46;20.33;;;10.88;;
48911;SDS011;34722;52.108;5.044;2023-02-08T15:49:15;18.23;;;9.93;;
48911;SDS011;34722;52.108;5.044;2023-02-08T15:51:43;14.60;;;9.38;;
48911;SDS011;34722;52.108;5.044;2023-02-08T15:54:13;18.38;;;9.43;;
48911;SDS011;34722;52.108;5.044;2023-02-08T15:56:44;19.33;;;10.30;;
48911;SDS011;34722;52.108;5.044;2023-02-08T15:59:23;18.40;;;10.30;;
48911;SDS011;34722;52.108;5.044;2023-02-08T16:01:52;19.40;;;10.45;;
48911;SDS011;34722;52.108;5.044;2023-02-08T16:04:19;18.50;;;10.68;;
48911;SDS011;34722;52.108;5.044;2023-02-08T16:06:47;19.35;;;10.70;;
48911;SDS011;34722;52.108;5.044;2023-02-08T16:09:16;15.95;;;10.57;;
48911;SDS011;34722;52.108;5.044;2023-02-08T16:11:45;17.23;;;10.40;;
48911;SDS011;34722;52.108;5.044;2023-02-08T16:14:14;16.63;;;10.20;;
48911;SDS011;34722;52.108;5.044;2023-02-08T16:16:43;19.67;;;10.93;;
48911;SDS011;34722;52.108;5.044;2023-02-08T16:19:19;17.13;;;9.80;;
48911;SDS011;34722;52.108;5.044;2023-02-08T16:21:48;13.73;;;9.73;;
48911;SDS011;34722;52.108;5.044;2023-02-08T16:26:40;18.58;;;10.10;;
48911;SDS011;34722;52.108;5.044;2023-02-08T16:29:41;17.55;;;10.02;;
48911;SDS011;34722;52.108;5.044;2023-02-08T16:34:57;18.80;;;9.52;;
48911;SDS011;34722;52.108;5.044;2023-02-08T16:37:26;19.73;;;10.52;;
48911;SDS011;34722;52.108;5.044;2023-02-08T16:40:01;17.08;;;10.93;;
48911;SDS011;34722;52.108;5.044;2023-02-08T16:42:35;17.00;;;10.18;;
48911;SDS011;34722;52.108;5.044;2023-02-08T16:47:39;15.60;;;9.77;;
48911;SDS011;34722;52.108;5.044;2023-02-08T16:50:10;18.25;;;9.70;;
48911;SDS011;34722;52.108;5.044;2023-02-08T16:52:52;17.90;;;9.77;;
48911;SDS011;34722;52.108;5.044;2023-02-08T16:55:31;17.80;;;10.23;;
48911;SDS011;34722;52.108;5.044;2023-02-08T16:58:00;19.35;;;9.73;;
48911;SDS011;34722;52.108;5.044;2023-02-08T17:02:54;17.92;;;10.50;;
48911;SDS011;34722;52.108;5.044;2023-02-08T17:05:21;18.92;;;10.13;;
48911;SDS011;34722;52.108;5.044;2023-02-08T17:07:52;24.45;;;11.05;;
48911;SDS011;34722;52.108;5.044;2023-02-08T17:10:30;18.73;;;10.07;;
48911;SDS011;34722;52.108;5.044;2023-02-08T17:12:57;17.67;;;9.77;;
48911;SDS011;34722;52.108;5.044;2023-02-08T17:15:24;14.65;;;7.97;;
48911;SDS011;34722;52.108;5.044;2023-02-08T17:17:59;15.27;;;7.93;;
48911;SDS011;34722;52.108;5.044;2023-02-08T17:20:26;13.63;;;6.95;;
48911;SDS011;34722;52.108;5.044;2023-02-08T17:26:03;15.32;;;8.13;;
48911;SDS011;34722;52.108;5.044;2023-02-08T17:31:56;16.17;;;8.25;;
48911;SDS011;34722;52.108;5.044;2023-02-08T17:34:23;13.48;;;7.65;;
48911;SDS011;34722;52.108;5.044;2023-02-08T17:37:01;14.45;;;8.40;;
48911;SDS011;34722;52.108;5.044;2023-02-08T17:39:28;14.65;;;7.85;;
48911;SDS011;34722;52.108;5.044;2023-02-08T17:41:53;15.35;;;7.45;;
48911;SDS011;34722;52.108;5.044;2023-02-08T17:44:19;13.07;;;7.93;;
48911;SDS011;34722;52.108;5.044;2023-02-08T17:46:44;13.98;;;7.38;;
48911;SDS011;34722;52.108;5.044;2023-02-08T17:49:10;15.75;;;9.80;;
48911;SDS011;34722;52.108;5.044;2023-02-08T17:51:35;14.13;;;7.88;;
48911;SDS011;34722;52.108;5.044;2023-02-08T17:54:04;17.75;;;9.20;;
48911;SDS011;34722;52.108;5.044;2023-02-08T17:56:30;20.15;;;9.38;;
48911;SDS011;34722;52.108;5.044;2023-02-08T17:59:00;18.08;;;8.60;;
48911;SDS011;34722;52.108;5.044;2023-02-08T18:01:29;19.17;;;9.05;;
48911;SDS011;34722;52.108;5.044;2023-02-08T18:03:55;23.23;;;10.13;;
48911;SDS011;34722;52.108;5.044;2023-02-08T18:06:23;16.33;;;9.43;;
48911;SDS011;34722;52.108;5.044;2023-02-08T18:08:52;20.50;;;10.52;;
48911;SDS011;34722;52.108;5.044;2023-02-08T18:11:22;17.50;;;10.05;;
48911;SDS011;34722;52.108;5.044;2023-02-08T18:16:45;19.55;;;10.10;;
48911;SDS011;34722;52.108;5.044;2023-02-08T18:22:06;18.27;;;9.30;;
48911;SDS011;34722;52.108;5.044;2023-02-08T18:24:32;16.98;;;9.88;;
48911;SDS011;34722;52.108;5.044;2023-02-08T18:26:58;18.13;;;9.43;;
48911;SDS011;34722;52.108;5.044;2023-02-08T18:29:24;22.65;;;10.90;;
48911;SDS011;34722;52.108;5.044;2023-02-08T18:31:50;20.65;;;10.20;;
48911;SDS011;34722;52.108;5.044;2023-02-08T18:34:17;20.75;;;11.23;;
48911;SDS011;34722;52.108;5.044;2023-02-08T18:36:55;15.82;;;9.50;;
48911;SDS011;34722;52.108;5.044;2023-02-08T18:39:21;20.42;;;9.57;;
48911;SDS011;34722;52.108;5.044;2023-02-08T18:41:48;20.10;;;9.00;;
48911;SDS011;34722;52.108;5.044;2023-02-08T18:44:15;18.77;;;9.10;;
48911;SDS011;34722;52.108;5.044;2023-02-08T18:46:42;17.65;;;8.82;;
48911;SDS011;34722;52.108;5.044;2023-02-08T18:49:11;17.92;;;10.00;;
48911;SDS011;34722;52.108;5.044;2023-02-08T18:51:40;16.52;;;9.70;;
48911;SDS011;34722;52.108;5.044;2023-02-08T18:54:08;19.27;;;10.75;;
48911;SDS011;34722;52.108;5.044;2023-02-08T18:56:36;17.85;;;9.55;;
48911;SDS011;34722;52.108;5.044;2023-02-08T18:59:02;20.98;;;10.30;;
48911;SDS011;34722;52.108;5.044;2023-02-08T19:01:28;17.17;;;8.57;;
48911;SDS011;34722;52.108;5.044;2023-02-08T19:03:57;15.65;;;9.68;;
48911;SDS011;34722;52.108;5.044;2023-02-08T19:06:24;19.02;;;10.55;;
48911;SDS011;34722;52.108;5.044;2023-02-08T19:08:52;16.52;;;10.15;;
48911;SDS011;34722;52.108;5.044;2023-02-08T19:11:22;16.60;;;10.20;;
48911;SDS011;34722;52.108;5.044;2023-02-08T19:13:50;20.40;;;10.38;;
48911;SDS011;34722;52.108;5.044;2023-02-08T19:16:16;17.83;;;9.23;;
48911;SDS011;34722;52.108;5.044;2023-02-08T19:18:43;20.15;;;8.88;;
48911;SDS011;34722;52.108;5.044;2023-02-08T19:21:11;16.48;;;9.35;;
48911;SDS011;34722;52.108;5.044;2023-02-08T19:23:38;18.40;;;9.52;;
48911;SDS011;34722;52.108;5.044;2023-02-08T19:26:05;19.33;;;9.57;;
48911;SDS011;34722;52.108;5.044;2023-02-08T19:28:33;16.10;;;8.68;;
48911;SDS011;34722;52.108;5.044;2023-02-08T19:33:36;18.98;;;9.35;;
48911;SDS011;34722;52.108;5.044;2023-02-08T19:36:10;23.77;;;9.05;;
48911;SDS011;34722;52.108;5.044;2023-02-08T19:42:10;16.77;;;9.68;;
48911;SDS011;34722;52.108;5.044;2023-02-08T19:44:35;13.18;;;8.80;;
48911;SDS011;34722;52.108;5.044;2023-02-08T19:47:01;18.08;;;10.55;;
48911;SDS011;34722;52.108;5.044;2023-02-08T19:49:27;18.60;;;9.40;;
48911;SDS011;34722;52.108;5.044;2023-02-08T19:51:53;16.92;;;8.57;;
48911;SDS011;34722;52.108;5.044;2023-02-08T19:54:19;18.48;;;10.52;;
48911;SDS011;34722;52.108;5.044;2023-02-08T19:56:46;15.43;;;8.65;;
48911;SDS011;34722;52.108;5.044;2023-02-08T19:59:18;22.85;;;9.77;;
48911;SDS011;34722;52.108;5.044;2023-02-08T20:01:45;16.60;;;9.43;;
48911;SDS011;34722;52.108;5.044;2023-02-08T20:04:12;15.85;;;9.02;;
48911;SDS011;34722;52.108;5.044;2023-02-08T20:06:38;18.45;;;10.80;;
48911;SDS011;34722;52.108;5.044;2023-02-08T20:09:05;18.88;;;9.80;;
48911;SDS011;34722;52.108;5.044;2023-02-08T20:11:33;18.55;;;9.95;;
48911;SDS011;34722;52.108;5.044;2023-02-08T20:14:03;19.52;;;9.48;;
48911;SDS011;34722;52.108;5.044;2023-02-08T20:16:30;17.05;;;8.63;;
48911;SDS011;34722;52.108;5.044;2023-02-08T20:18:56;17.10;;;9.13;;
48911;SDS011;34722;52.108;5.044;2023-02-08T20:21:22;18.02;;;9.93;;
48911;SDS011;34722;52.108;5.044;2023-02-08T20:23:48;18.08;;;10.98;;
48911;SDS011;34722;52.108;5.044;2023-02-08T20:26:15;19.85;;;10.38;;
48911;SDS011;34722;52.108;5.044;2023-02-08T20:28:45;18.08;;;9.98;;
48911;SDS011;34722;52.108;5.044;2023-02-08T20:31:13;19.63;;;9.90;;
48911;SDS011;34722;52.108;5.044;2023-02-08T20:33:41;22.98;;;10.30;;
48911;SDS011;34722;52.108;5.044;2023-02-08T20:36:08;18.67;;;9.50;;
48911;SDS011;34722;52.108;5.044;2023-02-08T20:38:53;19.73;;;9.82;;
48911;SDS011;34722;52.108;5.044;2023-02-08T20:41:21;21.27;;;10.73;;
48911;SDS011;34722;52.108;5.044;2023-02-08T20:43:48;17.17;;;10.15;;
48911;SDS011;34722;52.108;5.044;2023-02-08T20:46:18;17.40;;;9.88;;
48911;SDS011;34722;52.108;5.044;2023-02-08T20:48:54;20.27;;;10.20;;
48911;SDS011;34722;52.108;5.044;2023-02-08T20:51:21;20.10;;;10.55;;
48911;SDS011;34722;52.108;5.044;2023-02-08T20:53:47;23.45;;;11.13;;
48911;SDS011;34722;52.108;5.044;2023-02-08T20:56:15;20.73;;;11.10;;